createdAt,value
2019-03-19T00:00:46.104Z,0.00
2019-03-19T00:01:46.129Z,0.00
2019-03-19T00:02:46.151Z,0.00
2019-03-19T00:03:46.172Z,0.00
2019-03-19T00:04:46.194Z,0.00
2019-03-19T00:05:46.218Z,0.00
2019-03-19T00:06:46.238Z,0.00
2019-03-19T00:07:46.263Z,0.00
2019-03-19T00:08:46.300Z,0.00
2019-03-19T00:09:46.306Z,0.00
2019-03-19T00:10:46.332Z,0.00
2019-03-19T00:11:46.354Z,0.00
2019-03-19T00:12:46.374Z,0.00
2019-03-19T00:13:46.404Z,0.00
2019-03-19T00:14:46.423Z,0.00
2019-03-19T00:15:46.446Z,0.00
2019-03-19T00:16:46.467Z,0.00
2019-03-19T00:17:46.496Z,0.00
2019-03-19T00:18:46.513Z,0.00
2019-03-19T00:19:46.534Z,0.00
2019-03-19T00:20:46.558Z,0.00
2019-03-19T00:21:46.583Z,0.00
2019-03-19T00:22:46.602Z,0.00
2019-03-19T00:23:46.626Z,0.00
2019-03-19T00:24:46.646Z,0.00
2019-03-19T00:25:46.669Z,0.00
2019-03-19T00:26:46.691Z,0.00
2019-03-19T00:27:46.715Z,0.00
2019-03-19T00:28:46.738Z,0.00
2019-03-19T00:29:46.762Z,0.00
2019-03-19T00:30:46.781Z,0.00
2019-03-19T00:31:46.807Z,0.00
2019-03-19T00:32:46.836Z,0.00
2019-03-19T00:33:46.851Z,0.00
2019-03-19T00:34:46.871Z,0.00
2019-03-19T00:35:46.894Z,0.00
2019-03-19T00:36:46.919Z,0.00
2019-03-19T00:37:46.942Z,0.00
2019-03-19T00:38:46.968Z,0.00
2019-03-19T00:39:46.988Z,0.00
2019-03-19T00:40:47.006Z,0.00
2019-03-19T00:41:47.031Z,0.00
2019-03-19T00:42:47.053Z,0.00
2019-03-19T00:43:47.075Z,0.00
2019-03-19T00:44:47.099Z,0.00
2019-03-19T00:45:47.120Z,0.00
2019-03-19T00:46:47.143Z,0.00
2019-03-19T00:47:47.167Z,0.00
2019-03-19T00:48:47.189Z,0.00
2019-03-19T00:49:47.217Z,0.00
2019-03-19T00:50:47.235Z,0.00
2019-03-19T00:51:47.255Z,0.00
2019-03-19T00:52:47.279Z,0.00
2019-03-19T00:53:47.305Z,0.00
2019-03-19T00:54:47.322Z,0.00
2019-03-19T00:55:47.352Z,0.00
2019-03-19T00:56:47.369Z,0.00
2019-03-19T00:57:47.388Z,0.00
2019-03-19T00:58:47.411Z,0.00
2019-03-19T00:59:47.442Z,0.00
2019-03-19T01:00:47.459Z,0.00
2019-03-19T01:01:47.482Z,0.00
2019-03-19T01:02:47.504Z,0.00
2019-03-19T01:03:47.524Z,0.00
2019-03-19T01:04:47.546Z,0.00
2019-03-19T01:05:47.569Z,0.00
2019-03-19T01:06:47.594Z,0.00
2019-03-19T01:07:47.617Z,0.00
2019-03-19T01:08:47.638Z,0.00
2019-03-19T01:09:47.661Z,0.00
2019-03-19T01:10:47.680Z,0.00
2019-03-19T01:11:47.704Z,0.00
2019-03-19T01:12:47.725Z,0.00
2019-03-19T01:13:47.750Z,0.00
2019-03-19T01:14:47.772Z,0.00
2019-03-19T01:15:47.798Z,0.00
2019-03-19T01:16:47.816Z,0.00
2019-03-19T01:17:47.837Z,0.00
2019-03-19T01:18:47.861Z,0.00
2019-03-19T01:19:47.884Z,0.00
2019-03-19T01:20:47.917Z,0.00
2019-03-19T01:21:47.933Z,0.00
2019-03-19T01:22:47.951Z,0.00
2019-03-19T01:23:47.975Z,0.00
2019-03-19T01:24:47.995Z,0.00
2019-03-19T01:25:55.102Z,0.00
2019-03-19T01:26:48.042Z,0.00
2019-03-19T01:27:48.063Z,0.00
2019-03-19T01:28:48.084Z,0.00
2019-03-19T01:29:48.105Z,0.00
2019-03-19T01:30:48.133Z,0.00
2019-03-19T01:31:48.158Z,0.00
2019-03-19T01:32:48.173Z,0.00
2019-03-19T01:33:48.198Z,0.00
2019-03-19T01:34:48.220Z,0.00
2019-03-19T01:35:48.240Z,0.00
2019-03-19T01:36:48.260Z,0.00
2019-03-19T01:37:48.287Z,0.00
2019-03-19T01:38:48.306Z,0.00
2019-03-19T01:39:48.338Z,0.00
2019-03-19T01:40:48.361Z,0.00
2019-03-19T01:41:48.377Z,0.00
2019-03-19T01:42:48.400Z,0.00
2019-03-19T01:43:48.419Z,0.00
2019-03-19T01:44:48.450Z,0.00
2019-03-19T01:45:48.463Z,0.00
2019-03-19T01:46:48.490Z,0.00
2019-03-19T01:47:48.512Z,0.00
2019-03-19T01:48:48.533Z,0.00
2019-03-19T01:49:48.558Z,0.00
2019-03-19T01:50:48.583Z,0.00
2019-03-19T01:51:48.602Z,0.00
2019-03-19T01:52:48.629Z,0.00
2019-03-19T01:53:48.644Z,0.00
2019-03-19T01:54:48.666Z,0.00
2019-03-19T01:55:48.690Z,0.00
2019-03-19T01:56:48.714Z,0.00
2019-03-19T01:57:48.739Z,0.00
2019-03-19T01:58:48.767Z,0.00
2019-03-19T01:59:48.782Z,0.00
2019-03-19T02:00:48.804Z,0.00
2019-03-19T02:01:48.827Z,0.00
2019-03-19T02:02:48.847Z,0.00
2019-03-19T02:03:48.871Z,0.00
2019-03-19T02:04:48.893Z,0.00
2019-03-19T02:05:48.922Z,0.00
2019-03-19T02:06:48.935Z,0.00
2019-03-19T02:07:48.961Z,0.00
2019-03-19T02:08:48.984Z,0.00
2019-03-19T02:09:49.003Z,0.00
2019-03-19T02:10:49.028Z,0.00
2019-03-19T02:11:49.051Z,0.00
2019-03-19T02:12:49.073Z,0.00
2019-03-19T02:13:49.096Z,0.00
2019-03-19T02:14:49.120Z,0.00
2019-03-19T02:15:49.142Z,0.00
2019-03-19T02:16:49.169Z,0.00
2019-03-19T02:17:49.190Z,0.00
2019-03-19T02:18:49.206Z,0.00
2019-03-19T02:19:49.231Z,0.00
2019-03-19T02:20:49.253Z,0.00
2019-03-19T02:21:49.273Z,0.00
2019-03-19T02:22:49.306Z,0.00
2019-03-19T02:23:49.321Z,0.00
2019-03-19T02:24:49.345Z,0.00
2019-03-19T02:25:49.366Z,0.00
2019-03-19T02:26:49.388Z,0.00
2019-03-19T02:27:49.408Z,0.00
2019-03-19T02:28:49.432Z,0.00
2019-03-19T02:29:49.453Z,0.00
2019-03-19T02:30:49.478Z,0.00
2019-03-19T02:31:49.507Z,0.00
2019-03-19T02:32:49.529Z,0.00
2019-03-19T02:33:49.549Z,0.00
2019-03-19T02:34:49.582Z,0.00
2019-03-19T02:35:49.590Z,0.00
2019-03-19T02:36:49.621Z,0.00
2019-03-19T02:37:49.646Z,0.00
2019-03-19T02:38:49.657Z,0.00
2019-03-19T02:39:49.678Z,0.00
2019-03-19T02:40:49.698Z,0.00
2019-03-19T02:41:49.730Z,0.00
2019-03-19T02:42:49.758Z,0.00
2019-03-19T02:43:49.771Z,0.00
2019-03-19T02:44:49.802Z,0.00
2019-03-19T02:45:49.839Z,0.00
2019-03-19T02:46:49.836Z,0.00
2019-03-19T02:47:49.863Z,0.00
2019-03-19T02:48:49.886Z,0.00
2019-03-19T02:49:49.899Z,0.00
2019-03-19T02:50:49.931Z,0.00
2019-03-19T02:51:49.943Z,0.00
2019-03-19T02:52:49.976Z,0.00
2019-03-19T02:53:49.990Z,0.00
2019-03-19T02:54:50.012Z,0.00
2019-03-19T02:55:50.039Z,0.00
2019-03-19T02:56:50.054Z,0.00
2019-03-19T02:57:50.077Z,0.00
2019-03-19T02:58:50.109Z,0.00
2019-03-19T02:59:50.121Z,0.00
2019-03-19T03:00:50.143Z,0.00
2019-03-19T03:01:50.168Z,0.00
2019-03-19T03:02:50.192Z,0.00
2019-03-19T03:03:50.213Z,0.00
2019-03-19T03:04:50.241Z,0.00
2019-03-19T03:05:50.256Z,0.00
2019-03-19T03:06:50.277Z,0.00
2019-03-19T03:07:50.331Z,0.00
2019-03-19T03:08:50.329Z,0.00
2019-03-19T03:09:50.348Z,0.00
2019-03-19T03:10:50.421Z,0.00
2019-03-19T03:11:50.391Z,0.00
2019-03-19T03:12:50.412Z,0.00
2019-03-19T03:13:50.433Z,0.00
2019-03-19T03:14:50.460Z,0.00
2019-03-19T03:15:50.500Z,0.00
2019-03-19T03:16:50.499Z,0.00
2019-03-19T03:17:50.522Z,0.00
2019-03-19T03:18:50.547Z,0.00
2019-03-19T03:19:50.568Z,0.00
2019-03-19T03:20:50.591Z,0.00
2019-03-19T03:21:50.610Z,0.00
2019-03-19T03:22:50.636Z,0.00
2019-03-19T03:23:50.657Z,0.00
2019-03-19T03:24:50.678Z,0.00
2019-03-19T03:25:50.705Z,0.00
2019-03-19T03:26:50.732Z,0.00
2019-03-19T03:27:50.751Z,0.00
2019-03-19T03:28:50.766Z,0.00
2019-03-19T03:29:50.790Z,0.00
2019-03-19T03:30:50.818Z,0.00
2019-03-19T03:31:50.837Z,0.00
2019-03-19T03:32:50.864Z,0.00
2019-03-19T03:33:50.884Z,0.00
2019-03-19T03:34:50.910Z,0.00
2019-03-19T03:35:50.926Z,0.00
2019-03-19T03:36:50.945Z,0.00
2019-03-19T03:37:50.967Z,0.00
2019-03-19T03:38:50.992Z,0.00
2019-03-19T03:39:51.011Z,0.00
2019-03-19T03:40:51.051Z,0.00
2019-03-19T03:41:51.056Z,0.00
2019-03-19T03:42:51.089Z,0.00
2019-03-19T03:43:51.103Z,0.00
2019-03-19T03:44:51.125Z,0.00
2019-03-19T03:45:51.147Z,0.00
2019-03-19T03:46:51.168Z,0.00
2019-03-19T03:47:51.188Z,0.00
2019-03-19T03:48:51.213Z,0.00
2019-03-19T03:49:51.241Z,0.00
2019-03-19T03:50:51.259Z,0.00
2019-03-19T03:51:51.286Z,0.00
2019-03-19T03:52:51.304Z,0.00
2019-03-19T03:53:51.325Z,0.00
2019-03-19T03:54:51.349Z,0.00
2019-03-19T03:55:51.365Z,0.00
2019-03-19T03:57:01.830Z,0.00
2019-03-19T03:57:51.417Z,0.00
2019-03-19T03:59:00.498Z,0.00
2019-03-19T03:59:51.455Z,0.00
2019-03-19T04:00:51.478Z,0.00
2019-03-19T04:01:51.499Z,0.00
2019-03-19T04:02:51.526Z,0.00
2019-03-19T04:03:51.548Z,0.00
2019-03-19T04:04:51.565Z,0.00
2019-03-19T04:05:51.589Z,0.00
2019-03-19T04:06:51.616Z,0.00
2019-03-19T04:07:51.640Z,0.00
2019-03-19T04:08:51.655Z,0.00
2019-03-19T04:09:51.674Z,0.00
2019-03-19T04:10:51.712Z,0.00
2019-03-19T04:11:51.721Z,0.00
2019-03-19T04:12:51.751Z,0.00
2019-03-19T04:13:51.765Z,0.00
2019-03-19T04:14:51.789Z,0.00
2019-03-19T04:15:51.812Z,0.00
2019-03-19T04:16:51.829Z,0.00
2019-03-19T04:17:51.856Z,0.00
2019-03-19T04:18:51.874Z,0.00
2019-03-19T04:19:51.905Z,0.00
2019-03-19T04:20:51.920Z,0.00
2019-03-19T04:21:51.942Z,0.00
2019-03-19T04:22:51.965Z,0.00
2019-03-19T04:23:51.993Z,0.00
2019-03-19T04:24:52.006Z,0.00
2019-03-19T04:25:52.043Z,0.00
2019-03-19T04:26:52.049Z,0.00
2019-03-19T04:27:52.071Z,0.00
2019-03-19T04:28:52.097Z,0.00
2019-03-19T04:29:52.119Z,0.00
2019-03-19T04:30:52.134Z,0.00
2019-03-19T04:31:52.161Z,0.00
2019-03-19T04:32:52.185Z,0.00
2019-03-19T04:33:52.200Z,0.00
2019-03-19T04:34:52.226Z,0.00
2019-03-19T04:35:52.255Z,0.00
2019-03-19T04:36:52.271Z,0.00
2019-03-19T04:37:52.299Z,0.00
2019-03-19T04:38:52.317Z,0.00
2019-03-19T04:39:52.334Z,0.00
2019-03-19T04:40:52.358Z,0.00
2019-03-19T04:41:52.398Z,0.00
2019-03-19T04:42:52.404Z,0.00
2019-03-19T04:43:52.432Z,0.00
2019-03-19T04:44:52.449Z,0.00
2019-03-19T04:45:52.465Z,0.00
2019-03-19T04:46:52.495Z,0.00
2019-03-19T04:47:52.510Z,0.00
2019-03-19T04:48:52.565Z,0.00
2019-03-19T04:49:52.555Z,0.00
2019-03-19T04:50:52.577Z,0.00
2019-03-19T04:51:52.598Z,0.00
2019-03-19T04:52:52.625Z,0.00
2019-03-19T04:53:52.643Z,0.00
2019-03-19T04:54:52.664Z,0.00
2019-03-19T04:55:52.686Z,0.00
2019-03-19T04:56:52.709Z,0.00
2019-03-19T04:57:52.740Z,0.00
2019-03-19T04:58:52.754Z,0.00
2019-03-19T04:59:52.775Z,0.00
2019-03-19T05:00:52.794Z,0.00
2019-03-19T05:01:52.819Z,4.00
2019-03-19T05:02:52.846Z,4.00
2019-03-19T05:03:52.864Z,0.00
2019-03-19T05:04:52.891Z,4.00
2019-03-19T05:05:52.907Z,4.00
2019-03-19T05:06:52.940Z,4.00
2019-03-19T05:07:52.950Z,4.00
2019-03-19T05:08:52.977Z,8.00
2019-03-19T05:09:52.998Z,8.00
2019-03-19T05:10:53.015Z,8.00
2019-03-19T05:11:53.043Z,12.00
2019-03-19T05:12:53.065Z,12.00
2019-03-19T05:13:53.080Z,16.00
2019-03-19T05:14:53.105Z,16.00
2019-03-19T05:15:53.125Z,20.00
2019-03-19T05:16:53.147Z,20.00
2019-03-19T05:17:53.172Z,24.00
2019-03-19T05:18:53.190Z,28.00
2019-03-19T05:19:53.211Z,40.00
2019-03-19T05:20:53.235Z,44.00
2019-03-19T05:21:53.258Z,56.00
2019-03-19T05:22:53.279Z,64.00
2019-03-19T05:23:53.300Z,72.00
2019-03-19T05:24:53.328Z,84.00
2019-03-19T05:25:53.345Z,96.00
2019-03-19T05:26:53.367Z,108.00
2019-03-19T05:27:53.389Z,124.00
2019-03-19T05:28:53.410Z,140.00
2019-03-19T05:29:53.433Z,160.00
2019-03-19T05:30:53.454Z,180.00
2019-03-19T05:31:53.480Z,200.00
2019-03-19T05:32:53.504Z,224.00
2019-03-19T05:33:53.523Z,252.00
2019-03-19T05:34:53.539Z,276.00
2019-03-19T05:35:53.565Z,304.00
2019-03-19T05:36:53.583Z,332.00
2019-03-19T05:37:53.605Z,364.00
2019-03-19T05:38:53.628Z,396.00
2019-03-19T05:39:53.655Z,432.00
2019-03-19T05:40:53.778Z,468.00
2019-03-19T05:41:53.692Z,504.00
2019-03-19T05:42:53.720Z,544.00
2019-03-19T05:43:53.737Z,588.00
2019-03-19T05:44:53.760Z,628.00
2019-03-19T05:45:53.788Z,672.00
2019-03-19T05:46:53.804Z,716.00
2019-03-19T05:47:53.824Z,764.00
2019-03-19T05:48:53.844Z,812.00
2019-03-19T05:49:53.868Z,860.00
2019-03-19T05:50:53.890Z,908.00
2019-03-19T05:51:53.910Z,960.00
2019-03-19T05:52:53.933Z,1008.00
2019-03-19T05:53:53.955Z,1060.00
2019-03-19T05:54:53.977Z,1112.00
2019-03-19T05:55:53.999Z,1164.00
2019-03-19T05:56:54.018Z,1216.00
2019-03-19T05:57:54.050Z,1272.00
2019-03-19T05:58:54.064Z,1324.00
2019-03-19T05:59:54.084Z,1380.00
2019-03-19T06:00:54.110Z,1440.00
2019-03-19T06:01:54.129Z,1500.00
2019-03-19T06:02:54.157Z,1556.00
2019-03-19T06:03:54.173Z,1616.00
2019-03-19T06:04:54.194Z,1676.00
2019-03-19T06:05:54.216Z,1732.00
2019-03-19T06:06:54.238Z,1792.00
2019-03-19T06:07:54.258Z,1856.00
2019-03-19T06:08:54.288Z,1912.00
2019-03-19T06:09:54.303Z,1960.00
2019-03-19T06:10:54.325Z,2016.00
2019-03-19T06:11:54.348Z,2072.00
2019-03-19T06:12:54.366Z,2132.00
2019-03-19T06:13:54.388Z,2188.00
2019-03-19T06:14:54.415Z,2252.00
2019-03-19T06:15:54.439Z,2324.00
2019-03-19T06:16:54.513Z,2392.00
2019-03-19T06:17:54.477Z,2460.00
2019-03-19T06:18:54.497Z,2524.00
2019-03-19T06:19:54.529Z,2584.00
2019-03-19T06:20:54.540Z,2648.00
2019-03-19T06:21:56.686Z,2704.00
2019-03-19T06:22:54.585Z,2768.00
2019-03-19T06:23:54.609Z,2840.00
2019-03-19T06:24:54.627Z,2916.00
2019-03-19T06:25:54.650Z,2984.00
2019-03-19T06:26:54.673Z,3064.00
2019-03-19T06:28:00.478Z,3144.00
2019-03-19T06:28:54.722Z,3228.00
2019-03-19T06:29:54.745Z,3288.00
2019-03-19T06:30:54.765Z,3352.00
2019-03-19T06:31:54.783Z,3436.00
2019-03-19T06:32:54.808Z,3512.00
2019-03-19T06:33:54.824Z,3592.00
2019-03-19T06:34:54.848Z,3672.00
2019-03-19T06:35:54.874Z,3748.00
2019-03-19T06:36:54.889Z,3828.00
2019-03-19T06:37:54.911Z,3896.00
2019-03-19T06:38:54.975Z,3960.00
2019-03-19T06:39:54.979Z,4020.00
2019-03-19T06:40:55.011Z,4104.00
2019-03-19T06:41:55.000Z,4156.00
2019-03-19T06:42:55.028Z,4220.00
2019-03-19T06:43:55.046Z,4256.00
2019-03-19T06:44:55.067Z,4304.00
2019-03-19T06:45:55.087Z,4400.00
2019-03-19T06:46:55.112Z,4440.00
2019-03-19T06:47:55.132Z,4520.00
2019-03-19T06:48:55.156Z,4568.00
2019-03-19T06:49:55.179Z,4588.00
2019-03-19T06:50:55.213Z,4652.00
2019-03-19T06:51:55.220Z,4680.00
2019-03-19T06:52:55.244Z,4708.00
2019-03-19T06:53:55.264Z,4744.00
2019-03-19T06:54:55.288Z,4812.00
2019-03-19T06:55:55.350Z,4844.00
2019-03-19T06:56:55.332Z,4876.00
2019-03-19T06:57:55.354Z,4904.00
2019-03-19T06:58:55.375Z,4924.00
2019-03-19T06:59:55.400Z,4940.00
2019-03-19T07:00:55.422Z,4976.00
2019-03-19T07:01:55.441Z,5016.00
2019-03-19T07:02:55.464Z,5024.00
2019-03-19T07:03:55.491Z,5080.00
2019-03-19T07:04:55.510Z,5116.00
2019-03-19T07:05:55.530Z,5164.00
2019-03-19T07:06:55.553Z,5232.00
2019-03-19T07:07:55.577Z,5312.00
2019-03-19T07:08:55.603Z,5312.00
2019-03-19T07:09:55.620Z,5392.00
2019-03-19T07:10:55.642Z,5412.00
2019-03-19T07:11:55.667Z,5472.00
2019-03-19T07:12:55.692Z,5504.00
2019-03-19T07:13:55.709Z,5556.00
2019-03-19T07:14:55.732Z,5624.00
2019-03-19T07:15:55.754Z,5660.00
2019-03-19T07:16:55.779Z,5764.00
2019-03-19T07:17:55.799Z,5836.00
2019-03-19T07:18:55.823Z,5904.00
2019-03-19T07:19:55.847Z,5996.00
2019-03-19T07:20:55.869Z,6112.00
2019-03-19T07:21:55.890Z,6184.00
2019-03-19T07:22:55.914Z,6288.00
2019-03-19T07:23:55.940Z,6372.00
2019-03-19T07:24:55.958Z,6460.00
2019-03-19T07:25:55.988Z,6564.00
2019-03-19T07:26:56.003Z,6624.00
2019-03-19T07:27:56.022Z,6720.00
2019-03-19T07:28:56.048Z,6836.00
2019-03-19T07:29:56.069Z,6916.00
2019-03-19T07:30:56.094Z,6988.00
2019-03-19T07:31:56.117Z,7072.00
2019-03-19T07:32:56.137Z,7184.00
2019-03-19T07:33:56.198Z,7176.00
2019-03-19T07:34:56.186Z,7272.00
2019-03-19T07:35:56.209Z,7352.00
2019-03-19T07:36:56.230Z,7448.00
2019-03-19T07:37:56.252Z,7580.00
2019-03-19T07:38:56.277Z,7616.00
2019-03-19T07:39:56.300Z,7744.00
2019-03-19T07:40:56.323Z,7896.00
2019-03-19T07:41:56.344Z,8976.00
2019-03-19T07:42:56.369Z,22240.00
2019-03-19T07:43:56.394Z,36064.00
2019-03-19T07:44:56.423Z,52704.00
2019-03-19T07:45:56.438Z,69920.00
2019-03-19T07:46:56.459Z,73408.00
2019-03-19T07:47:56.483Z,72064.00
2019-03-19T07:48:56.508Z,71552.00
2019-03-19T07:49:56.536Z,72800.00
2019-03-19T07:50:56.556Z,75840.00
2019-03-19T07:51:56.581Z,76064.00
2019-03-19T07:52:56.611Z,74496.00
2019-03-19T07:53:56.629Z,75616.00
2019-03-19T07:57:22.537Z,78048.00
2019-03-19T07:58:32.649Z,78272.00
2019-03-19T07:59:22.585Z,78496.00
2019-03-19T08:00:22.610Z,78816.00
2019-03-19T08:01:24.560Z,76832.00
2019-03-19T08:02:22.660Z,77696.00
2019-03-19T08:03:22.691Z,78560.00
2019-03-19T08:04:22.724Z,77472.00
2019-03-19T08:05:32.464Z,79136.00
2019-03-19T08:06:22.780Z,79808.00
2019-03-19T08:07:25.827Z,79616.00
2019-03-19T08:08:22.830Z,81248.00
2019-03-19T08:09:22.865Z,80032.00
2019-03-19T08:10:22.886Z,80800.00
2019-03-19T08:11:22.919Z,82016.00
2019-03-19T08:12:22.945Z,83360.00
2019-03-19T08:13:22.974Z,84352.00
2019-03-19T08:14:23.008Z,83744.00
2019-03-19T08:15:23.038Z,85376.00
2019-03-19T08:16:27.325Z,85792.00
2019-03-19T08:17:23.100Z,84032.00
2019-03-19T08:18:23.129Z,82432.00
2019-03-19T08:19:23.158Z,83104.00
2019-03-19T08:20:23.186Z,85376.00
2019-03-19T08:21:23.219Z,83712.00
2019-03-19T08:25:19.217Z,88256.00
2019-03-19T08:26:19.246Z,86080.00
2019-03-19T08:27:19.285Z,85696.00
2019-03-19T08:28:19.309Z,89248.00
2019-03-19T08:29:19.339Z,89856.00
2019-03-19T08:30:19.371Z,88480.00
2019-03-19T08:31:19.403Z,87360.00
2019-03-19T08:32:22.065Z,85888.00
2019-03-19T08:33:19.467Z,85984.00
2019-03-19T08:34:19.509Z,87104.00
2019-03-19T08:35:19.531Z,87840.00
2019-03-19T08:38:19.766Z,89984.00
2019-03-19T08:39:20.810Z,88704.00
2019-03-19T08:40:19.831Z,88960.00
2019-03-19T08:41:19.862Z,89792.00
2019-03-19T08:42:19.894Z,90208.00
2019-03-19T08:43:20.434Z,90784.00
2019-03-19T08:44:27.430Z,88448.00
2019-03-19T08:45:20.010Z,86624.00
2019-03-19T08:46:20.026Z,87168.00
2019-03-19T08:47:20.068Z,88256.00
2019-03-19T08:48:20.095Z,89568.00
2019-03-19T08:49:22.285Z,90624.00
2019-03-19T08:50:20.168Z,90144.00
2019-03-19T08:51:20.196Z,89920.00
2019-03-19T08:52:20.233Z,90272.00
2019-03-19T08:53:20.262Z,89824.00
2019-03-19T08:54:20.298Z,91584.00
2019-03-19T08:55:20.334Z,89920.00
2019-03-19T08:56:20.366Z,85504.00
2019-03-19T08:57:20.408Z,84864.00
2019-03-19T08:58:20.440Z,83296.00
2019-03-19T08:59:20.470Z,85728.00
2019-03-19T09:00:20.503Z,87648.00
2019-03-19T09:01:20.535Z,91712.00
2019-03-19T09:02:20.573Z,95168.00
2019-03-19T09:03:20.607Z,97568.00
2019-03-19T09:04:20.646Z,95712.00
2019-03-19T09:05:20.675Z,94976.00
2019-03-19T09:06:20.710Z,96096.00
2019-03-19T09:07:20.742Z,96992.00
2019-03-19T09:08:20.775Z,96032.00
2019-03-19T09:09:20.812Z,95360.00
2019-03-19T09:10:20.845Z,99520.00
2019-03-19T09:11:20.879Z,99744.00
2019-03-19T09:12:20.916Z,101088.00
2019-03-19T09:13:20.953Z,97536.00
2019-03-19T09:14:20.991Z,101792.00
2019-03-19T09:15:21.019Z,102688.00
2019-03-19T09:16:21.059Z,104352.00
2019-03-19T09:17:21.088Z,105088.00
2019-03-19T09:18:21.121Z,109952.00
2019-03-19T09:19:21.162Z,109408.00
2019-03-19T09:20:21.191Z,29120.00
2019-03-19T09:21:21.224Z,85408.00
2019-03-19T09:22:21.262Z,106944.00
2019-03-19T09:23:21.305Z,21056.00
2019-03-19T09:24:22.746Z,21376.00
2019-03-19T09:25:21.366Z,14112.00
2019-03-19T09:26:21.398Z,11772.00
2019-03-19T09:27:21.441Z,12836.00
2019-03-19T09:28:21.463Z,13452.00
2019-03-19T09:29:21.499Z,16364.00
2019-03-19T09:30:21.532Z,113824.00
2019-03-19T09:31:21.570Z,110048.00
2019-03-19T09:32:21.596Z,91008.00
2019-03-19T09:33:21.630Z,24192.00
2019-03-19T09:34:21.670Z,22336.00
2019-03-19T09:35:21.693Z,25920.00
2019-03-19T09:36:21.729Z,47072.00
2019-03-19T09:37:21.764Z,15584.00
2019-03-19T09:39:09.355Z,10640.00
2019-03-19T09:40:09.388Z,9552.00
2019-03-19T09:41:09.415Z,9040.00
2019-03-19T09:42:09.448Z,8312.00
2019-03-19T09:43:09.477Z,7788.00
2019-03-19T09:44:09.509Z,7444.00
2019-03-19T09:45:09.538Z,7452.00
2019-03-19T09:46:09.577Z,8108.00
2019-03-19T09:47:09.599Z,8840.00
2019-03-19T09:48:09.637Z,10452.00
2019-03-19T09:49:09.661Z,13480.00
2019-03-19T09:50:09.690Z,21600.00
2019-03-19T09:51:09.721Z,113632.00
2019-03-19T09:52:09.747Z,85664.00
2019-03-19T09:53:09.780Z,102880.00
2019-03-19T09:54:09.806Z,109344.00
2019-03-19T09:55:09.839Z,114752.00
2019-03-19T09:56:09.867Z,112896.00
2019-03-19T09:57:09.894Z,90304.00
2019-03-19T09:58:12.553Z,31072.00
2019-03-19T09:59:09.959Z,17888.00
2019-03-19T10:00:09.988Z,15168.00
2019-03-19T10:01:10.013Z,18432.00
2019-03-19T10:02:10.042Z,18592.00
2019-03-19T10:03:10.077Z,103488.00
2019-03-19T10:04:10.105Z,8708.00
2019-03-19T10:05:10.139Z,7616.00
2019-03-19T10:06:14.367Z,7400.00
2019-03-19T10:07:10.196Z,7412.00
2019-03-19T10:08:10.221Z,7296.00
2019-03-19T10:09:10.250Z,7324.00
2019-03-19T10:10:10.281Z,8712.00
2019-03-19T10:11:10.309Z,16536.00
2019-03-19T10:12:10.338Z,109152.00
2019-03-19T10:13:10.368Z,107104.00
2019-03-19T10:14:10.398Z,105984.00
2019-03-19T10:15:10.436Z,107584.00
2019-03-19T10:16:10.457Z,97056.00
2019-03-19T10:17:10.497Z,90720.00
2019-03-19T10:18:10.519Z,11752.00
2019-03-19T10:19:10.543Z,9276.00
2019-03-19T10:20:10.581Z,17400.00
2019-03-19T10:21:10.708Z,13252.00
2019-03-19T10:22:10.630Z,109024.00
2019-03-19T10:23:10.664Z,105472.00
2019-03-19T10:24:10.701Z,107264.00
2019-03-19T10:25:10.724Z,105536.00
2019-03-19T10:26:10.752Z,102528.00
2019-03-19T10:27:10.781Z,103584.00
2019-03-19T10:28:10.817Z,105760.00
2019-03-19T10:29:10.838Z,105376.00
2019-03-19T10:30:10.870Z,105312.00
2019-03-19T10:31:10.899Z,103840.00
2019-03-19T10:32:10.936Z,103968.00
2019-03-19T10:33:10.960Z,104480.00
2019-03-19T10:34:10.990Z,102880.00
2019-03-19T10:35:11.032Z,105440.00
2019-03-19T10:36:11.054Z,105056.00
2019-03-19T10:37:11.085Z,101920.00
2019-03-19T10:38:11.119Z,100000.00
2019-03-19T10:39:11.151Z,101216.00
2019-03-19T10:40:11.186Z,104992.00
2019-03-19T10:41:11.214Z,104480.00
2019-03-19T10:42:11.255Z,104160.00
2019-03-19T10:43:11.281Z,105536.00
2019-03-19T10:45:18.980Z,31616.00
2019-03-19T10:46:18.963Z,20096.00
2019-03-19T10:47:18.994Z,14936.00
2019-03-19T10:48:19.029Z,14960.00
2019-03-19T10:49:19.060Z,15196.00
2019-03-19T10:50:19.094Z,16848.00
2019-03-19T10:51:19.125Z,40768.00
2019-03-19T10:52:19.168Z,50880.00
2019-03-19T10:53:19.190Z,65184.00
2019-03-19T10:54:19.233Z,72416.00
2019-03-19T10:55:19.258Z,100128.00
2019-03-19T10:56:19.289Z,103072.00
2019-03-19T10:57:19.322Z,103872.00
2019-03-19T10:58:19.351Z,47936.00
2019-03-19T10:59:19.418Z,103872.00
2019-03-19T11:00:19.415Z,65376.00
2019-03-19T11:01:19.448Z,19680.00
2019-03-19T11:02:19.483Z,37952.00
2019-03-19T11:03:19.518Z,87008.00
2019-03-19T11:04:19.566Z,106976.00
2019-03-19T11:05:19.583Z,104832.00
2019-03-19T11:06:19.612Z,103392.00
2019-03-19T11:07:19.643Z,106912.00
2019-03-19T11:08:19.672Z,70048.00
2019-03-19T11:09:19.708Z,104960.00
2019-03-19T11:10:19.744Z,108128.00
2019-03-19T11:11:19.779Z,103328.00
2019-03-19T11:12:19.805Z,70272.00
2019-03-19T11:13:19.838Z,110848.00
2019-03-19T11:14:19.869Z,40992.00
2019-03-19T11:15:19.901Z,25824.00
2019-03-19T11:16:19.941Z,21824.00
2019-03-19T11:17:19.969Z,19872.00
2019-03-19T11:18:19.997Z,18496.00
2019-03-19T11:19:20.036Z,17176.00
2019-03-19T11:20:20.064Z,16904.00
2019-03-19T11:21:20.103Z,17172.00
2019-03-19T11:22:20.129Z,16812.00
2019-03-19T11:23:20.167Z,18464.00
2019-03-19T11:24:20.190Z,23360.00
2019-03-19T11:25:20.220Z,19776.00
2019-03-19T11:26:20.254Z,28896.00
2019-03-19T11:27:20.283Z,23744.00
2019-03-19T11:28:20.313Z,19968.00
2019-03-19T11:29:20.350Z,21920.00
2019-03-19T11:30:20.382Z,24736.00
2019-03-19T11:31:20.407Z,28320.00
2019-03-19T11:32:20.444Z,101760.00
2019-03-19T11:33:20.465Z,73120.00
2019-03-19T11:34:20.504Z,82272.00
2019-03-19T11:35:20.526Z,61696.00
2019-03-19T11:36:20.562Z,16876.00
2019-03-19T11:37:20.585Z,98368.00
2019-03-19T11:38:20.621Z,19744.00
2019-03-19T11:39:20.647Z,89952.00
2019-03-19T11:40:20.674Z,84416.00
2019-03-19T11:41:20.715Z,80832.00
2019-03-19T11:42:20.737Z,98112.00
2019-03-19T11:43:20.767Z,65984.00
2019-03-19T11:44:20.800Z,94208.00
2019-03-19T11:45:20.828Z,92096.00
2019-03-19T11:46:20.961Z,91968.00
2019-03-19T11:47:20.891Z,94912.00
2019-03-19T11:48:20.932Z,93600.00
2019-03-19T11:49:20.955Z,91072.00
2019-03-19T11:50:20.989Z,90976.00
2019-03-19T11:51:23.638Z,43936.00
2019-03-19T11:52:21.051Z,14128.00
2019-03-19T11:53:21.087Z,12320.00
2019-03-19T11:56:01.255Z,12312.00
2019-03-19T11:57:01.287Z,12216.00
2019-03-19T11:58:01.317Z,12440.00
2019-03-19T11:59:01.349Z,15140.00
2019-03-19T12:00:10.746Z,89280.00
2019-03-19T12:01:01.410Z,96160.00
2019-03-19T12:02:01.441Z,19360.00
2019-03-19T12:03:12.200Z,41792.00
2019-03-19T12:04:01.504Z,95264.00
2019-03-19T12:05:01.544Z,39424.00
2019-03-19T12:06:01.567Z,81728.00
2019-03-19T12:07:01.600Z,94752.00
2019-03-19T12:08:01.631Z,91904.00
2019-03-19T12:09:01.660Z,92192.00
2019-03-19T12:10:01.692Z,84352.00
2019-03-19T12:11:01.722Z,90528.00
2019-03-19T12:12:01.754Z,91584.00
2019-03-19T12:13:01.790Z,91936.00
2019-03-19T12:14:05.861Z,89568.00
2019-03-19T12:15:01.858Z,90880.00
2019-03-19T12:16:01.888Z,90880.00
2019-03-19T12:17:01.916Z,46240.00
2019-03-19T12:18:01.950Z,27776.00
2019-03-19T12:19:01.982Z,21216.00
2019-03-19T12:20:02.015Z,13636.00
2019-03-19T12:21:02.047Z,10420.00
2019-03-19T12:22:02.087Z,17824.00
2019-03-19T12:23:02.111Z,82656.00
2019-03-19T12:24:02.144Z,83712.00
2019-03-19T12:25:02.195Z,86624.00
2019-03-19T12:26:02.209Z,88000.00
2019-03-19T12:27:02.245Z,85216.00
2019-03-19T12:28:02.273Z,82080.00
2019-03-19T12:29:02.303Z,82208.00
2019-03-19T12:30:02.339Z,79200.00
2019-03-19T12:31:02.392Z,79040.00
2019-03-19T12:32:02.410Z,78560.00
2019-03-19T12:33:02.443Z,79712.00
2019-03-19T12:34:02.473Z,87296.00
2019-03-19T12:35:02.499Z,71040.00
2019-03-19T12:36:02.532Z,38176.00
2019-03-19T12:37:02.567Z,29696.00